createdAt,value
2018-09-09T00:00:07.557Z,9.67
2018-09-09T00:02:35.453Z,9.93
2018-09-09T00:05:03.609Z,10.60
2018-09-09T00:07:31.564Z,10.83
2018-09-09T00:09:59.456Z,10.17
2018-09-09T00:12:27.429Z,10.10
2018-09-09T00:14:55.405Z,10.87
2018-09-09T00:17:23.381Z,11.10
2018-09-09T00:19:51.325Z,12.07
2018-09-09T00:22:19.280Z,12.03
2018-09-09T00:24:47.148Z,11.50
2018-09-09T00:27:15.134Z,12.27
2018-09-09T00:29:43.084Z,10.83
2018-09-09T00:32:11.012Z,11.37
2018-09-09T00:34:38.993Z,12.30
2018-09-09T00:37:06.885Z,10.53
2018-09-09T00:39:34.774Z,9.53
2018-09-09T00:42:02.729Z,10.70
2018-09-09T00:44:30.707Z,11.37
2018-09-09T00:46:58.660Z,12.03
2018-09-09T00:49:32.287Z,10.60
2018-09-09T00:52:05.754Z,11.03
2018-09-09T00:54:33.700Z,11.00
2018-09-09T00:57:01.650Z,12.13
2018-09-09T00:59:29.616Z,11.80
2018-09-09T01:01:57.601Z,11.33
2018-09-09T01:04:25.536Z,10.83
2018-09-09T01:06:53.461Z,10.60
2018-09-09T01:09:25.841Z,11.57
2018-09-09T01:11:53.757Z,10.13
2018-09-09T01:14:21.731Z,9.90
2018-09-09T01:16:49.767Z,9.00
2018-09-09T01:19:17.711Z,9.00
2018-09-09T01:21:45.705Z,8.90
2018-09-09T01:24:13.600Z,10.53
2018-09-09T01:26:41.545Z,9.20
2018-09-09T01:29:09.522Z,7.80
2018-09-09T01:31:37.493Z,8.40
2018-09-09T01:34:05.476Z,8.20
2018-09-09T01:36:33.431Z,8.50
2018-09-09T01:39:01.460Z,7.80
2018-09-09T01:41:29.444Z,8.50
2018-09-09T01:43:57.460Z,7.70
2018-09-09T01:46:25.413Z,8.27
2018-09-09T01:48:53.377Z,8.43
2018-09-09T01:51:21.342Z,7.47
2018-09-09T01:53:49.304Z,9.33
2018-09-09T01:56:17.297Z,7.13
2018-09-09T01:58:45.212Z,7.00
2018-09-09T02:01:13.191Z,7.90
2018-09-09T02:03:41.287Z,8.00
2018-09-09T02:06:09.328Z,15.20
2018-09-09T02:08:37.252Z,8.33
2018-09-09T02:11:05.220Z,7.77
2018-09-09T02:13:33.112Z,8.35
2018-09-09T02:16:01.324Z,8.55
2018-09-09T02:18:29.249Z,9.00
2018-09-09T02:20:57.214Z,10.40
2018-09-09T02:23:25.271Z,9.88
2018-09-09T02:25:53.411Z,9.90
2018-09-09T02:28:21.333Z,10.18
2018-09-09T02:30:49.303Z,10.23
2018-09-09T02:33:17.308Z,10.30
2018-09-09T02:35:45.284Z,10.00
2018-09-09T02:38:13.237Z,9.60
2018-09-09T02:40:41.560Z,8.60
2018-09-09T02:43:09.568Z,9.80
2018-09-09T02:45:37.552Z,9.40
2018-09-09T02:48:05.546Z,12.07
2018-09-09T02:50:33.461Z,11.18
2018-09-09T02:53:01.432Z,10.20
2018-09-09T02:55:29.886Z,12.00
2018-09-09T02:57:57.863Z,11.85
2018-09-09T03:00:25.853Z,11.13
2018-09-09T03:02:53.949Z,10.25
2018-09-09T03:05:21.875Z,11.65
2018-09-09T03:07:49.889Z,11.28
2018-09-09T03:10:17.794Z,13.05
2018-09-09T03:12:45.720Z,10.67
2018-09-09T03:15:13.674Z,9.78
2018-09-09T03:17:41.657Z,10.80
2018-09-09T03:20:09.558Z,10.00
2018-09-09T03:22:37.551Z,10.50
2018-09-09T03:25:05.520Z,13.10
2018-09-09T03:27:33.421Z,11.10
2018-09-09T03:30:01.379Z,10.53
2018-09-09T03:32:29.318Z,10.23
2018-09-09T03:34:57.329Z,11.10
2018-09-09T03:37:25.245Z,9.83
2018-09-09T03:39:53.195Z,10.40
2018-09-09T03:42:21.117Z,9.95
2018-09-09T03:44:49.101Z,10.70
2018-09-09T03:47:17.013Z,11.57
2018-09-09T03:49:45.005Z,9.28
2018-09-09T03:52:12.949Z,10.05
2018-09-09T03:54:40.901Z,9.85
2018-09-09T03:57:08.888Z,8.83
2018-09-09T03:59:36.863Z,11.12
2018-09-09T04:02:04.951Z,9.63
2018-09-09T04:04:32.903Z,8.70
2018-09-09T04:07:00.890Z,10.60
2018-09-09T04:09:28.878Z,11.33
2018-09-09T04:11:56.793Z,9.20
2018-09-09T04:14:31.293Z,11.40
2018-09-09T04:16:59.261Z,10.93
2018-09-09T04:19:27.206Z,12.00
2018-09-09T04:21:55.146Z,11.03
2018-09-09T04:24:23.596Z,11.18
2018-09-09T04:26:51.490Z,11.15
2018-09-09T04:29:19.456Z,11.35
2018-09-09T04:31:47.349Z,10.93
2018-09-09T04:34:15.317Z,10.28
2018-09-09T04:36:43.298Z,9.85
2018-09-09T04:39:12.996Z,10.00
2018-09-09T04:41:41.209Z,9.68
2018-09-09T04:44:10.265Z,9.80
2018-09-09T04:46:38.332Z,9.45
2018-09-09T04:49:06.641Z,10.45
2018-09-09T04:51:34.586Z,11.20
2018-09-09T04:54:02.519Z,10.10
2018-09-09T04:56:30.528Z,10.53
2018-09-09T04:58:58.497Z,10.03
2018-09-09T05:01:26.539Z,10.38
2018-09-09T05:03:54.408Z,10.55
2018-09-09T05:06:22.276Z,11.28
2018-09-09T05:08:50.235Z,10.10
2018-09-09T05:11:18.214Z,12.13
2018-09-09T05:13:46.202Z,11.57
2018-09-09T05:16:14.089Z,11.93
2018-09-09T05:18:42.073Z,12.13
2018-09-09T05:21:10.012Z,11.78
2018-09-09T05:23:37.935Z,11.03
2018-09-09T05:26:05.988Z,11.40
2018-09-09T05:28:33.906Z,11.57
2018-09-09T05:31:01.805Z,12.30
2018-09-09T05:33:29.763Z,11.43
2018-09-09T05:35:57.957Z,10.67
2018-09-09T05:38:26.013Z,8.07
2018-09-09T05:40:53.947Z,9.10
2018-09-09T05:43:21.925Z,11.70
2018-09-09T05:45:49.925Z,13.20
2018-09-09T05:48:17.852Z,10.40
2018-09-09T05:50:46.178Z,9.87
2018-09-09T05:53:14.091Z,13.30
2018-09-09T05:55:42.173Z,13.00
2018-09-09T05:58:10.112Z,11.20
2018-09-09T06:00:38.096Z,12.10
2018-09-09T06:03:06.025Z,11.10
2018-09-09T06:05:33.973Z,11.03
2018-09-09T06:08:01.921Z,11.13
2018-09-09T06:10:29.866Z,9.83
2018-09-09T06:12:58.171Z,11.83
2018-09-09T06:15:26.218Z,11.97
2018-09-09T06:17:54.122Z,9.53
2018-09-09T06:20:22.059Z,12.50
2018-09-09T06:22:50.051Z,14.10
2018-09-09T06:25:18.022Z,11.67
2018-09-09T06:27:45.952Z,14.90
2018-09-09T06:30:13.870Z,11.90
2018-09-09T06:32:41.846Z,11.40
2018-09-09T06:35:09.912Z,12.40
2018-09-09T06:37:37.984Z,12.87
2018-09-09T06:40:06.320Z,12.17
2018-09-09T06:42:34.315Z,12.50
2018-09-09T06:45:02.311Z,12.87
2018-09-09T06:47:30.271Z,10.43
2018-09-09T06:49:58.170Z,11.53
2018-09-09T06:52:26.084Z,9.67
2018-09-09T06:54:54.068Z,12.47
2018-09-09T06:57:21.985Z,11.63
2018-09-09T06:59:49.916Z,11.30
2018-09-09T07:02:17.897Z,10.60
2018-09-09T07:04:45.751Z,10.53
2018-09-09T07:07:13.701Z,10.90
2018-09-09T07:09:41.684Z,10.03
2018-09-09T07:12:09.553Z,10.63
2018-09-09T07:14:37.540Z,9.33
2018-09-09T07:17:05.526Z,10.60
2018-09-09T07:19:33.505Z,11.70
2018-09-09T07:22:01.441Z,9.03
2018-09-09T07:24:29.372Z,9.90
2018-09-09T07:26:57.288Z,9.47
2018-09-09T07:29:25.246Z,11.90
2018-09-09T07:31:53.214Z,10.40
2018-09-09T07:34:21.235Z,10.57
2018-09-09T07:36:49.081Z,10.13
2018-09-09T07:39:16.965Z,9.00
2018-09-09T07:41:44.909Z,10.20
2018-09-09T07:44:13.496Z,8.90
2018-09-09T07:46:41.457Z,7.87
2018-09-09T07:49:09.438Z,9.50
2018-09-09T07:51:37.429Z,7.90
2018-09-09T07:54:05.382Z,7.53
2018-09-09T07:56:33.326Z,9.40
2018-09-09T07:59:01.242Z,8.30
2018-09-09T08:01:29.123Z,7.73
2018-09-09T08:03:57.037Z,8.03
2018-09-09T08:06:24.948Z,8.20
2018-09-09T08:08:53.037Z,8.03
2018-09-09T08:11:21.112Z,9.50
2018-09-09T08:13:49.129Z,9.60
2018-09-09T08:16:17.137Z,8.93
2018-09-09T08:18:45.077Z,8.97
2018-09-09T08:21:13.072Z,9.37
2018-09-09T08:23:41.120Z,8.97
2018-09-09T08:26:09.075Z,10.40
2018-09-09T08:28:37.073Z,9.60
2018-09-09T08:31:05.049Z,10.37
2018-09-09T08:33:33.079Z,9.43
2018-09-09T08:36:01.084Z,12.20
2018-09-09T08:38:28.992Z,11.60
2018-09-09T08:40:57.041Z,12.00
2018-09-09T08:43:24.982Z,10.80
2018-09-09T08:45:52.938Z,10.30
2018-09-09T08:48:20.955Z,10.50
2018-09-09T08:50:48.943Z,11.20
2018-09-09T08:53:16.897Z,14.13
2018-09-09T08:55:44.925Z,11.03
2018-09-09T08:58:12.859Z,12.60
2018-09-09T09:00:40.784Z,12.23
2018-09-09T09:03:08.705Z,11.10
2018-09-09T09:05:36.680Z,10.50
2018-09-09T09:08:05.543Z,10.90
2018-09-09T09:10:33.499Z,10.90
2018-09-09T09:13:01.364Z,11.20
2018-09-09T09:15:29.305Z,11.37
2018-09-09T09:17:57.266Z,11.87
2018-09-09T09:20:25.166Z,10.80
2018-09-09T09:22:53.096Z,11.40
2018-09-09T09:25:21.118Z,11.37
2018-09-09T09:27:49.129Z,8.83
2018-09-09T09:30:17.149Z,9.40
2018-09-09T09:32:45.184Z,9.27
2018-09-09T09:35:13.071Z,9.10
2018-09-09T09:37:41.039Z,9.23
2018-09-09T09:40:08.966Z,9.80
2018-09-09T09:42:36.897Z,9.33
2018-09-09T09:45:04.856Z,8.43
2018-09-09T09:47:32.819Z,8.77
2018-09-09T09:50:00.777Z,8.67
2018-09-09T09:52:28.712Z,8.93
2018-09-09T09:54:56.621Z,8.70
2018-09-09T09:57:24.551Z,7.93
2018-09-09T09:59:52.497Z,9.43
2018-09-09T10:02:20.488Z,7.43
2018-09-09T10:04:48.397Z,8.23
2018-09-09T10:07:16.288Z,8.10
2018-09-09T10:09:44.241Z,7.70
2018-09-09T10:12:12.161Z,8.00
2018-09-09T10:14:40.093Z,7.37
2018-09-09T10:17:08.033Z,8.00
2018-09-09T10:19:36.013Z,9.10
2018-09-09T10:22:03.987Z,7.60
2018-09-09T10:24:31.890Z,6.43
2018-09-09T10:26:59.845Z,6.90
2018-09-09T10:29:27.794Z,6.90
2018-09-09T10:31:55.724Z,7.57
2018-09-09T10:34:23.683Z,6.13
2018-09-09T10:36:51.662Z,6.60
2018-09-09T10:39:19.558Z,6.00
2018-09-09T10:41:47.470Z,6.73
2018-09-09T10:44:15.513Z,6.47
2018-09-09T10:46:43.491Z,6.37
2018-09-09T10:49:11.373Z,6.77
2018-09-09T10:51:39.269Z,6.03
2018-09-09T10:54:07.317Z,5.67
2018-09-09T10:56:35.232Z,5.40
2018-09-09T10:59:03.210Z,7.37
2018-09-09T11:01:31.153Z,6.23
2018-09-09T11:03:59.085Z,6.00
2018-09-09T11:06:27.047Z,5.47
2018-09-09T11:08:55.001Z,5.47
2018-09-09T11:11:23.009Z,5.10
2018-09-09T11:13:51.017Z,5.37
2018-09-09T11:16:18.952Z,4.30
2018-09-09T11:18:46.925Z,5.23
2018-09-09T11:21:14.882Z,4.77
2018-09-09T11:23:42.909Z,4.43
2018-09-09T11:26:10.834Z,5.00
2018-09-09T11:28:38.788Z,4.17
2018-09-09T11:31:06.824Z,4.43
2018-09-09T11:33:34.832Z,4.40
2018-09-09T11:36:02.926Z,5.37
2018-09-09T11:38:30.958Z,5.57
2018-09-09T11:40:58.933Z,5.30
2018-09-09T11:43:26.833Z,5.57
2018-09-09T11:45:54.842Z,4.90
2018-09-09T11:48:22.813Z,5.10
2018-09-09T11:50:50.840Z,5.13
2018-09-09T11:53:19.040Z,5.10
2018-09-09T11:55:47.065Z,4.60
2018-09-09T11:58:15.065Z,5.23
2018-09-09T12:00:42.961Z,4.33
2018-09-09T12:03:10.949Z,5.37
2018-09-09T12:05:38.923Z,5.03
2018-09-09T12:08:06.912Z,5.00
2018-09-09T12:10:34.936Z,4.87
2018-09-09T12:13:02.920Z,5.70
2018-09-09T12:15:30.801Z,5.47
2018-09-09T12:17:58.765Z,5.70
2018-09-09T12:20:26.696Z,5.00
2018-09-09T12:22:54.701Z,5.03
2018-09-09T12:25:22.723Z,5.10
2018-09-09T12:27:50.763Z,5.90
2018-09-09T12:30:18.709Z,5.23
2018-09-09T12:32:47.513Z,4.57
2018-09-09T12:35:15.441Z,4.80
2018-09-09T12:37:43.411Z,4.60
2018-09-09T12:40:11.421Z,4.70
2018-09-09T12:42:39.385Z,4.27
2018-09-09T12:45:12.976Z,5.40
2018-09-09T12:47:46.429Z,5.03
2018-09-09T12:50:14.442Z,4.90
2018-09-09T12:52:42.391Z,5.07
2018-09-09T12:55:10.394Z,4.40
2018-09-09T12:57:38.368Z,4.80
2018-09-09T13:00:07.174Z,4.63
2018-09-09T13:02:35.186Z,7.73
2018-09-09T13:05:03.213Z,4.37
2018-09-09T13:07:31.189Z,4.97
2018-09-09T13:09:59.345Z,4.63
2018-09-09T13:12:31.893Z,4.40
2018-09-09T13:14:59.810Z,4.00
2018-09-09T13:17:27.725Z,4.67
2018-09-09T13:19:55.989Z,4.40
2018-09-09T13:22:24.800Z,4.87
2018-09-09T13:24:52.726Z,4.97
2018-09-09T13:27:20.659Z,4.70
2018-09-09T13:29:49.258Z,4.87
2018-09-09T13:32:17.837Z,4.67
2018-09-09T13:34:46.377Z,5.83
2018-09-09T13:37:14.318Z,4.27
2018-09-09T13:39:42.401Z,4.97
2018-09-09T13:42:10.344Z,4.63
2018-09-09T13:44:39.304Z,4.80
2018-09-09T13:47:08.094Z,4.93
2018-09-09T13:49:37.637Z,4.73
2018-09-09T13:52:06.150Z,4.53
2018-09-09T13:54:34.060Z,5.07
2018-09-09T13:57:01.973Z,4.80
2018-09-09T13:59:30.350Z,5.83
2018-09-09T14:01:58.465Z,4.40
2018-09-09T14:04:27.084Z,5.47
2018-09-09T14:06:54.850Z,4.47
2018-09-09T14:09:22.837Z,4.63
2018-09-09T14:11:50.758Z,4.40
2018-09-09T14:14:18.555Z,4.73
2018-09-09T14:16:46.534Z,5.03
2018-09-09T14:19:14.401Z,5.10
2018-09-09T14:21:42.508Z,4.60
2018-09-09T14:24:10.483Z,4.80
2018-09-09T14:26:38.413Z,4.43
2018-09-09T14:29:06.930Z,4.97
2018-09-09T14:31:34.873Z,4.67
2018-09-09T14:34:02.770Z,5.73
2018-09-09T14:36:30.712Z,4.70
2018-09-09T14:38:58.682Z,4.37
2018-09-09T14:41:26.657Z,4.57
2018-09-09T14:43:54.814Z,4.93
2018-09-09T14:46:23.166Z,5.33
2018-09-09T14:48:51.116Z,4.97
2018-09-09T14:51:19.072Z,4.80
2018-09-09T14:53:46.969Z,4.07
2018-09-09T14:56:14.936Z,4.30
2018-09-09T14:58:42.941Z,4.37
2018-09-09T15:01:11.711Z,5.00
2018-09-09T15:03:39.732Z,3.73
2018-09-09T15:06:07.701Z,4.70
2018-09-09T15:08:35.658Z,4.20
2018-09-09T15:11:04.328Z,4.47
2018-09-09T15:13:32.857Z,4.60
2018-09-09T15:16:00.733Z,5.07
2018-09-09T15:18:28.748Z,4.87
2018-09-09T15:20:56.693Z,4.30
2018-09-09T15:23:24.708Z,5.00
2018-09-09T15:25:53.248Z,4.83
2018-09-09T15:28:21.225Z,4.60
2018-09-09T15:30:49.213Z,4.13
2018-09-09T15:33:17.144Z,4.77
2018-09-09T15:35:45.076Z,4.67
2018-09-09T15:38:13.061Z,4.43
2018-09-09T15:40:41.009Z,4.23
2018-09-09T15:43:09.359Z,4.67
2018-09-09T15:45:37.370Z,4.43
2018-09-09T15:48:05.315Z,4.80
2018-09-09T15:50:33.234Z,4.93
2018-09-09T15:53:01.100Z,4.97
2018-09-09T15:55:29.778Z,4.50
2018-09-09T15:57:57.736Z,3.90
2018-09-09T16:00:25.677Z,4.80
2018-09-09T16:02:53.645Z,4.80
2018-09-09T16:05:21.585Z,4.20
2018-09-09T16:07:49.600Z,4.70
2018-09-09T16:10:17.549Z,5.13
2018-09-09T16:12:45.579Z,4.90
2018-09-09T16:15:13.453Z,4.80
2018-09-09T16:17:41.410Z,4.50
2018-09-09T16:20:09.323Z,4.30
2018-09-09T16:22:37.286Z,5.00
2018-09-09T16:25:06.227Z,4.40
2018-09-09T16:27:34.229Z,5.23
2018-09-09T16:30:02.184Z,4.90
2018-09-09T16:32:30.184Z,5.17
2018-09-09T16:34:58.164Z,4.73
2018-09-09T16:37:26.056Z,5.03
2018-09-09T16:39:54.075Z,4.63
2018-09-09T16:42:22.066Z,5.13
2018-09-09T16:44:50.086Z,4.80
2018-09-09T16:47:18.281Z,5.50
2018-09-09T16:49:46.248Z,5.20
2018-09-09T16:52:14.747Z,5.33
2018-09-09T16:54:42.710Z,5.57
2018-09-09T16:57:12.221Z,4.97
2018-09-09T16:59:40.436Z,5.63
2018-09-09T17:02:08.716Z,4.67
2018-09-09T17:04:36.665Z,4.10
2018-09-09T17:07:04.467Z,5.50
2018-09-09T17:09:32.633Z,4.90
2018-09-09T17:12:00.715Z,4.80
2018-09-09T17:14:28.693Z,4.97
2018-09-09T17:16:56.634Z,6.10
2018-09-09T17:19:24.641Z,6.73
2018-09-09T17:21:53.160Z,9.23
2018-09-09T17:24:21.133Z,5.30
2018-09-09T17:26:49.089Z,5.77
2018-09-09T17:29:17.082Z,5.40
2018-09-09T17:31:45.072Z,5.03
2018-09-09T17:34:13.858Z,5.67
2018-09-09T17:36:41.820Z,5.53
2018-09-09T17:39:10.582Z,5.13
2018-09-09T17:41:38.899Z,5.57
2018-09-09T17:44:06.933Z,6.23
2018-09-09T17:46:35.717Z,6.27
2018-09-09T17:49:04.350Z,6.20
2018-09-09T17:51:32.315Z,6.90
2018-09-09T17:54:00.444Z,5.77
2018-09-09T17:56:28.417Z,6.13
2018-09-09T17:58:56.361Z,5.47
2018-09-09T18:01:24.312Z,5.57
2018-09-09T18:03:52.262Z,5.80
2018-09-09T18:06:20.496Z,7.33
2018-09-09T18:08:48.483Z,6.10
2018-09-09T18:11:16.420Z,6.53
2018-09-09T18:13:44.449Z,6.00
2018-09-09T18:16:12.385Z,5.97
2018-09-09T18:18:40.384Z,6.23
2018-09-09T18:21:08.358Z,6.20
2018-09-09T18:23:36.375Z,7.83
2018-09-09T18:26:04.350Z,5.90
2018-09-09T18:28:32.305Z,5.70
2018-09-09T18:31:00.257Z,6.60
2018-09-09T18:33:28.368Z,6.27
2018-09-09T18:35:56.334Z,6.90
2018-09-09T18:38:24.308Z,5.60
2018-09-09T18:40:52.281Z,6.10
2018-09-09T18:43:20.196Z,6.93
2018-09-09T18:45:48.140Z,7.03
2018-09-09T18:48:16.140Z,6.60
2018-09-09T18:50:44.057Z,7.73
2018-09-09T18:53:12.043Z,7.10
2018-09-09T18:55:40.149Z,6.43
2018-09-09T18:58:08.143Z,6.30
2018-09-09T19:00:36.049Z,6.37
2018-09-09T19:03:04.017Z,8.63
2018-09-09T19:05:32.305Z,7.17
2018-09-09T19:08:00.241Z,7.40
2018-09-09T19:10:28.193Z,6.43
2018-09-09T19:12:56.131Z,6.57
2018-09-09T19:15:24.099Z,7.77
2018-09-09T19:17:52.073Z,7.23
2018-09-09T19:20:20.189Z,7.40
2018-09-09T19:22:48.123Z,7.50
2018-09-09T19:25:22.673Z,7.80
2018-09-09T19:27:50.648Z,8.00
2018-09-09T19:30:18.665Z,7.53
2018-09-09T19:32:47.560Z,7.03
2018-09-09T19:35:16.070Z,6.70
2018-09-09T19:37:43.987Z,7.43
2018-09-09T19:40:11.956Z,7.37
2018-09-09T19:42:39.920Z,7.27
2018-09-09T19:45:07.902Z,9.30
2018-09-09T19:47:36.013Z,8.50
2018-09-09T19:50:05.046Z,8.07
2018-09-09T19:52:33.310Z,8.67
2018-09-09T19:55:01.309Z,8.47
2018-09-09T19:57:31.073Z,8.10
2018-09-09T19:59:59.043Z,9.03
2018-09-09T20:02:27.554Z,10.23
2018-09-09T20:04:55.702Z,8.90
2018-09-09T20:07:23.628Z,9.60
2018-09-09T20:09:51.911Z,9.97
2018-09-09T20:12:19.845Z,10.30
2018-09-09T20:14:54.818Z,10.90
2018-09-09T20:17:22.855Z,9.90
2018-09-09T20:19:50.824Z,9.50
2018-09-09T20:22:19.290Z,9.00
2018-09-09T20:24:47.206Z,10.53
2018-09-09T20:27:15.214Z,8.17
2018-09-09T20:29:43.178Z,9.17
2018-09-09T20:32:11.106Z,9.80
2018-09-09T20:34:39.064Z,9.33
2018-09-09T20:37:07.036Z,8.30
2018-09-09T20:39:35.000Z,10.20
2018-09-09T20:42:02.982Z,9.77
2018-09-09T20:44:30.965Z,8.50
2018-09-09T20:46:58.921Z,9.87
2018-09-09T20:49:27.217Z,9.63
2018-09-09T20:51:58.737Z,9.33
2018-09-09T20:54:26.963Z,10.07
2018-09-09T20:56:56.789Z,10.40
2018-09-09T20:59:27.446Z,9.27
2018-09-09T21:01:55.485Z,8.83
2018-09-09T21:04:23.517Z,10.20
2018-09-09T21:06:51.449Z,9.00
2018-09-09T21:09:19.418Z,9.77
2018-09-09T21:11:47.298Z,8.53
2018-09-09T21:14:15.290Z,7.73
2018-09-09T21:16:43.339Z,8.40
2018-09-09T21:19:11.760Z,8.80
2018-09-09T21:21:39.737Z,8.73
2018-09-09T21:24:07.766Z,8.90
2018-09-09T21:26:35.726Z,9.00
2018-09-09T21:29:04.330Z,9.13
2018-09-09T21:31:32.285Z,9.77
2018-09-09T21:34:01.000Z,9.27
2018-09-09T21:36:29.181Z,9.67
2018-09-09T21:38:57.104Z,9.67
2018-09-09T21:41:25.018Z,10.20
2018-09-09T21:43:52.924Z,10.00
2018-09-09T21:46:20.828Z,9.70
2018-09-09T21:48:48.800Z,8.70
2018-09-09T21:51:16.716Z,9.60
2018-09-09T21:53:44.734Z,8.50
2018-09-09T21:56:12.769Z,9.00
2018-09-09T21:58:41.386Z,8.97
2018-09-09T22:01:14.801Z,10.90
2018-09-09T22:03:42.806Z,8.73
2018-09-09T22:06:11.496Z,9.13
2018-09-09T22:08:39.482Z,8.53
2018-09-09T22:11:07.489Z,10.27
2018-09-09T22:13:35.453Z,9.73
2018-09-09T22:16:03.433Z,9.73
2018-09-09T22:18:31.472Z,9.43
2018-09-09T22:20:59.450Z,8.50
2018-09-09T22:23:27.459Z,9.10
2018-09-09T22:25:55.367Z,9.90
2018-09-09T22:28:23.347Z,10.70
2018-09-09T22:30:51.505Z,10.00
2018-09-09T22:33:19.455Z,9.90
2018-09-09T22:35:47.428Z,11.47
2018-09-09T22:38:15.465Z,12.03
2018-09-09T22:40:43.574Z,11.37
2018-09-09T22:43:11.559Z,12.03
2018-09-09T22:45:40.426Z,12.13
2018-09-09T22:48:08.535Z,11.00
2018-09-09T22:50:36.459Z,10.50
2018-09-09T22:53:04.398Z,11.37
2018-09-09T22:55:32.456Z,10.47
2018-09-09T22:58:01.353Z,10.93
2018-09-09T23:00:29.349Z,9.57
2018-09-09T23:02:57.245Z,10.93
2018-09-09T23:05:25.213Z,11.43
2018-09-09T23:07:53.265Z,8.43
2018-09-09T23:10:21.277Z,11.10
2018-09-09T23:12:49.230Z,12.23
2018-09-09T23:15:21.330Z,10.97
2018-09-09T23:17:49.315Z,10.83
2018-09-09T23:20:17.247Z,13.13
2018-09-09T23:22:45.605Z,12.63
2018-09-09T23:25:13.520Z,18.67
2018-09-09T23:27:41.521Z,15.90
2018-09-09T23:30:09.532Z,10.37
2018-09-09T23:32:37.484Z,10.77
2018-09-09T23:35:05.568Z,13.00
2018-09-09T23:37:33.524Z,11.80
2018-09-09T23:40:01.707Z,10.30
2018-09-09T23:42:30.221Z,11.33
2018-09-09T23:44:58.165Z,11.57
2018-09-09T23:47:26.115Z,11.80
2018-09-09T23:49:54.065Z,12.07
2018-09-09T23:52:21.997Z,11.97
2018-09-09T23:54:51.035Z,12.50
2018-09-09T23:57:19.072Z,12.80
2018-09-09T23:59:47.134Z,11.63
